Time;durP1;ratioP1;P1;durP2;ratioP2;P2;SDS_P1;SDS_P2;PMS_P1;PMS_P2;Temp;Humidity;BMP_temperature;BMP_pressure;BME280_temperature;BME280_humidity;BME280_pressure;Samples;Min_cycle;Max_cycle;Signal;HPM_P1;HPM_P2
2023/10/27 00:01:05;;;;;;;;;1.00;1.00;;;;;13.48;100.00;99148.34;5082241;28;45232;-68
2023/10/27 00:03:30;;;;;;;;;2.00;1.00;;;;;13.46;100.00;99144.94;5083312;27;45380;-68
2023/10/27 00:05:55;;;;;;;;;1.00;1.00;;;;;13.52;100.00;99152.38;5083301;27;45526;-69
2023/10/27 00:08:21;;;;;;;;;1.67;1.00;;;;;13.47;100.00;99157.28;5083459;27;45321;-69
2023/10/27 00:10:47;;;;;;;;;2.00;2.00;;;;;13.48;100.00;99153.66;5082318;28;45326;-68
2023/10/27 00:13:12;;;;;;;;;1.00;1.00;;;;;13.43;100.00;99153.19;5089092;27;45368;-68
2023/10/27 00:15:38;;;;;;;;;1.00;1.00;;;;;13.41;100.00;99152.47;5103189;27;45458;-69
2023/10/27 00:18:03;;;;;;;;;1.67;1.67;;;;;13.26;100.00;99141.34;5119773;27;45334;-68
2023/10/27 00:20:29;;;;;;;;;2.33;2.33;;;;;13.33;100.00;99158.44;5103847;27;45346;-68
2023/10/27 00:22:54;;;;;;;;;3.00;3.00;;;;;13.33;100.00;99152.28;5103569;27;45467;-68
2023/10/27 00:25:20;;;;;;;;;2.00;2.00;;;;;13.31;100.00;99146.25;5103658;27;45406;-68
2023/10/27 00:27:45;;;;;;;;;2.33;2.00;;;;;13.40;100.00;99158.75;5103320;27;45397;-68
2023/10/27 00:30:11;;;;;;;;;3.00;3.00;;;;;13.40;100.00;99161.41;5103534;27;45299;-68
2023/10/27 00:32:36;;;;;;;;;3.33;3.33;;;;;13.37;100.00;99166.97;5103277;27;45393;-68
2023/10/27 00:35:04;;;;;;;;;6.00;3.00;;;;;13.39;100.00;99181.81;5103364;27;45311;-69
2023/10/27 00:37:33;;;;;;;;;5.00;3.00;;;;;13.39;100.00;99176.50;5103095;27;45259;-69
2023/10/27 00:39:58;;;;;;;;;4.00;3.00;;;;;13.40;100.00;99180.84;5103615;27;45300;-68
2023/10/27 00:42:24;;;;;;;;;4.00;2.33;;;;;13.35;100.00;99174.25;5102026;27;45773;-68
2023/10/27 00:44:49;;;;;;;;;3.00;3.00;;;;;13.40;100.00;99193.28;5119244;27;46870;-69
2023/10/27 00:47:15;;;;;;;;;3.00;3.00;;;;;13.40;100.00;99187.97;5102691;27;45381;-68
2023/10/27 00:49:40;;;;;;;;;5.00;4.67;;;;;13.29;100.00;99158.81;5102231;27;45370;-68
2023/10/27 00:52:06;;;;;;;;;3.33;3.33;;;;;13.39;100.00;99184.47;5103120;27;45446;-68
2023/10/27 00:54:35;;;;;;;;;7.00;4.67;;;;;13.38;100.00;99181.94;5103144;27;45958;-68
2023/10/27 00:57:01;;;;;;;;;5.33;4.00;;;;;13.44;100.00;99202.69;5102934;27;45296;-68
2023/10/27 00:59:26;;;;;;;;;6.00;4.00;;;;;13.28;100.00;99163.31;5103091;27;45258;-68
2023/10/27 01:01:52;;;;;;;;;3.00;3.00;;;;;13.34;100.00;99183.19;5102659;27;45385;-69
2023/10/27 01:04:18;;;;;;;;;5.00;4.00;;;;;13.41;100.00;99184.34;5102955;27;45303;-69
2023/10/27 01:06:43;;;;;;;;;5.00;3.00;;;;;13.43;100.00;99191.22;5101803;27;45347;-68
2023/10/27 01:09:09;;;;;;;;;4.00;4.00;;;;;13.32;100.00;99182.44;5102792;27;45301;-69
2023/10/27 01:11:35;;;;;;;;;4.00;4.00;;;;;13.48;100.00;99204.13;5118727;27;45356;-68
2023/10/27 01:14:01;;;;;;;;;5.67;4.00;;;;;13.43;100.00;99198.31;5089982;27;45341;-68
2023/10/27 01:16:26;;;;;;;;;2.67;2.67;;;;;13.46;100.00;99198.06;5081523;27;45247;-68
2023/10/27 01:18:51;;;;;;;;;3.00;3.00;;;;;13.49;100.00;99203.13;5082385;27;45855;-68
2023/10/27 01:21:17;;;;;;;;;5.00;4.00;;;;;13.44;100.00;99190.25;5082229;27;45341;-68
2023/10/27 01:23:42;;;;;;;;;3.00;3.00;;;;;13.47;100.00;99200.59;5081957;27;45268;-68
2023/10/27 01:26:08;;;;;;;;;4.33;3.00;;;;;13.46;100.00;99198.91;5082198;27;45257;-68
2023/10/27 01:28:33;;;;;;;;;4.00;4.00;;;;;13.49;100.00;99209.28;5082044;28;45182;-68
2023/10/27 01:30:59;;;;;;;;;3.67;3.00;;;;;13.44;100.00;99197.38;5081951;27;45390;-68
2023/10/27 01:33:25;;;;;;;;;6.00;3.00;;;;;13.47;100.00;99205.06;5081762;27;45349;-68
2023/10/27 01:35:51;;;;;;;;;4.00;4.00;;;;;13.41;100.00;99195.81;5081799;27;45383;-68
2023/10/27 01:38:16;;;;;;;;;3.00;3.00;;;;;13.45;100.00;99197.22;5081909;27;45428;-68
2023/10/27 01:40:42;;;;;;;;;3.33;3.33;;;;;13.43;100.00;99199.19;5081909;27;45308;-68
2023/10/27 01:43:10;;;;;;;;;3.00;2.00;;;;;13.44;100.00;99202.69;5081832;28;45862;-68
2023/10/27 01:45:38;;;;;;;;;3.33;1.67;;;;;13.42;100.00;99212.56;5081813;27;45337;-68
2023/10/27 01:48:03;;;;;;;;;3.00;2.00;;;;;13.42;100.00;99208.09;5081658;27;45277;-68
2023/10/27 01:50:29;;;;;;;;;2.00;2.00;;;;;13.28;100.00;99192.50;5081869;27;45258;-68
2023/10/27 01:52:55;;;;;;;;;4.00;2.67;;;;;13.36;100.00;99213.94;5080477;28;48165;-69
2023/10/27 01:55:20;;;;;;;;;2.00;1.00;;;;;13.34;100.00;99212.38;5080615;28;45590;-68
2023/10/27 01:57:46;;;;;;;;;2.00;2.00;;;;;13.34;100.00;99215.03;5081611;27;45464;-68
2023/10/27 02:00:12;;;;;;;;;2.00;2.00;;;;;13.28;100.00;99212.91;5081392;27;45481;-68
2023/10/27 02:02:38;;;;;;;;;3.00;2.00;;;;;13.26;100.00;99222.78;5080327;28;47272;-68
2023/10/27 02:05:07;;;;;;;;;3.67;2.00;;;;;13.23;100.00;99221.25;5081576;27;45288;-68
2023/10/27 02:07:33;;;;;;;;;3.67;1.00;;;;;13.15;100.00;99209.59;5081553;27;45300;-68
2023/10/27 02:09:59;;;;;;;;;0.67;0.67;;;;;13.01;100.00;99192.09;5081677;27;45765;-69
2023/10/27 02:12:26;;;;;;;;;0.00;0.00;;;;;13.10;100.00;99215.25;5081117;28;45261;-68
2023/10/27 02:14:51;;;;;;;;;2.00;2.00;;;;;12.95;100.00;99205.88;5100718;27;45344;-69
2023/10/27 02:17:17;;;;;;;;;2.00;2.00;;;;;12.97;100.00;99212.75;5101631;27;45244;-68
2023/10/27 02:19:43;;;;;;;;;4.00;1.67;;;;;12.97;100.00;99214.56;5101360;27;45339;-68
2023/10/27 02:22:08;;;;;;;;;5.00;3.00;;;;;12.91;100.00;99218.56;5116764;27;47199;-69
2023/10/27 02:24:34;;;;;;;;;2.00;2.00;;;;;12.88;100.00;99212.66;5101671;27;45332;-68
2023/10/27 02:26:59;;;;;;;;;5.00;1.00;;;;;12.82;100.00;99221.97;5101693;27;45409;-69
2023/10/27 02:29:25;;;;;;;;;3.67;1.00;;;;;12.79;100.00;99221.38;5117594;27;45736;-68
2023/10/27 02:31:51;;;;;;;;;3.00;2.00;;;;;12.77;100.00;99215.34;5101300;27;46117;-68
2023/10/27 02:34:16;;;;;;;;;0.67;0.67;;;;;12.62;100.00;99208.63;5101352;27;45264;-68
2023/10/27 02:36:44;;;;;;;;;4.67;2.00;;;;;12.63;100.00;99215.63;5100419;27;45380;-68
2023/10/27 02:39:09;;;;;;;;;2.67;2.00;;;;;12.47;100.00;99195.63;5101490;27;45231;-68
2023/10/27 02:41:36;;;;;;;;;2.33;2.33;;;;;12.53;100.00;99212.88;5101365;27;45934;-68
2023/10/27 02:44:01;;;;;;;;;4.00;2.00;;;;;12.37;100.00;99189.38;5101297;27;45463;-68
2023/10/27 02:46:27;;;;;;;;;5.00;2.00;;;;;12.49;100.00;99212.28;5101284;27;45336;-68
2023/10/27 02:48:52;;;;;;;;;2.67;2.00;;;;;12.38;100.00;99199.03;5101012;27;45502;-68
2023/10/27 02:51:18;;;;;;;;;2.67;2.67;;;;;12.43;100.00;99222.53;5101184;27;45335;-68
2023/10/27 02:53:44;;;;;;;;;1.67;1.67;;;;;12.33;100.00;99209.16;5101090;27;45296;-69
2023/10/27 02:56:10;;;;;;;;;1.00;1.00;;;;;12.39;100.00;99223.75;5101316;27;45354;-68
2023/10/27 02:58:36;;;;;;;;;5.00;3.00;;;;;12.29;100.00;99204.22;5101119;27;45384;-68
2023/10/27 03:01:14;;;;;;;;;5.00;3.00;;;;;12.33;100.00;99221.59;5099625;27;46172;-68
2023/10/27 03:03:39;;;;;;;;;1.00;1.00;;;;;12.30;100.00;99222.63;5100687;27;45195;-68
2023/10/27 03:06:05;;;;;;;;;2.00;1.00;;;;;12.23;100.00;99225.91;5100201;27;45187;-68
2023/10/27 03:08:34;;;;;;;;;0.67;0.67;;;;;12.11;100.00;99206.50;5101089;27;45206;-68
2023/10/27 03:11:00;;;;;;;;;1.00;1.00;;;;;12.18;100.00;99228.91;5100802;27;45436;-68
2023/10/27 03:13:30;;;;;;;;;2.00;2.00;;;;;12.15;100.00;99228.31;5108870;27;45473;-68
2023/10/27 03:16:02;;;;;;;;;5.00;2.33;;;;;12.11;100.00;99232.16;5080208;27;45267;-68
2023/10/27 03:18:27;;;;;;;;;1.33;1.33;;;;;12.09;100.00;99239.41;5080262;28;45463;-68
2023/10/27 03:20:55;;;;;;;;;1.67;1.33;;;;;12.10;100.00;99241.09;5080252;27;46667;-68
2023/10/27 03:23:20;;;;;;;;;2.33;2.00;;;;;12.09;100.00;99234.09;5080256;27;45280;-69
2023/10/27 03:25:46;;;;;;;;;4.00;2.00;;;;;12.07;100.00;99236.03;5080488;27;45235;-68
2023/10/27 03:28:11;;;;;;;;;1.00;1.00;;;;;11.96;100.00;99229.78;5080269;28;45246;-68
2023/10/27 03:30:37;;;;;;;;;3.00;3.00;;;;;12.07;100.00;99249.28;5095902;27;47376;-68
2023/10/27 03:33:02;;;;;;;;;3.00;2.67;;;;;12.08;100.00;99249.16;5082593;27;45304;-68
2023/10/27 03:35:28;;;;;;;;;3.33;2.00;;;;;11.96;100.00;99224.47;5084116;27;45250;-68
2023/10/27 03:37:54;;;;;;;;;3.67;2.33;;;;;12.05;100.00;99236.16;5083875;27;45452;-68
2023/10/27 03:40:19;;;;;;;;;3.00;3.00;;;;;12.14;100.00;99247.84;5083485;27;46936;-68
2023/10/27 03:42:44;;;;;;;;;3.33;3.00;;;;;12.16;100.00;99249.41;5083797;27;45297;-68
2023/10/27 03:45:10;;;;;;;;;2.00;2.00;;;;;12.16;100.00;99246.75;5083572;27;45318;-68
2023/10/27 03:47:35;;;;;;;;;2.33;2.00;;;;;12.17;100.00;99243.13;5083623;27;45502;-68
2023/10/27 03:50:01;;;;;;;;;5.67;3.00;;;;;12.21;100.00;99243.72;5083527;28;45422;-68
2023/10/27 03:52:26;;;;;;;;;1.67;1.00;;;;;12.16;100.00;99235.31;5082826;28;45451;-68
2023/10/27 03:54:52;;;;;;;;;3.00;2.00;;;;;12.25;100.00;99238.09;5083704;27;45482;-68
2023/10/27 03:57:18;;;;;;;;;4.33;2.00;;;;;12.15;100.00;99223.00;5083534;27;45428;-68
2023/10/27 03:59:43;;;;;;;;;4.33;2.00;;;;;12.29;100.00;99242.19;5083305;27;45368;-68
2023/10/27 04:02:09;;;;;;;;;1.00;1.00;;;;;12.30;100.00;99240.38;5083292;27;45273;-68
2023/10/27 04:04:34;;;;;;;;;1.00;1.00;;;;;12.31;100.00;99239.41;5083449;27;45633;-68
2023/10/27 04:07:01;;;;;;;;;3.00;2.00;;;;;12.24;100.00;99222.28;5083401;27;45444;-68
2023/10/27 04:09:26;;;;;;;;;4.33;2.00;;;;;12.34;100.00;99245.28;5083267;27;46286;-68
2023/10/27 04:11:52;;;;;;;;;3.00;2.00;;;;;12.30;100.00;99240.38;5083062;27;45344;-68
2023/10/27 04:14:17;;;;;;;;;4.33;2.00;;;;;12.24;100.00;99233.72;5098253;27;45294;-68
2023/10/27 04:16:43;;;;;;;;;4.67;2.00;;;;;12.32;100.00;99257.84;5102123;27;45372;-68
2023/10/27 04:19:08;;;;;;;;;2.00;2.00;;;;;12.33;100.00;99253.38;5103534;27;46271;-68
2023/10/27 04:21:33;;;;;;;;;5.00;3.00;;;;;12.29;100.00;99252.78;5103749;27;45313;-68
2023/10/27 04:23:59;;;;;;;;;4.00;4.00;;;;;12.26;100.00;99253.03;5103824;27;45284;-68
2023/10/27 04:26:25;;;;;;;;;3.00;3.00;;;;;12.19;100.00;99243.03;5102671;27;45465;-68
2023/10/27 04:28:51;;;;;;;;;1.00;1.00;;;;;12.22;100.00;99262.19;5103446;27;45318;-68
2023/10/27 04:31:16;;;;;;;;;2.67;2.00;;;;;12.12;100.00;99245.31;5103275;27;45334;-68
2023/10/27 04:33:43;;;;;;;;;3.00;3.00;;;;;12.22;100.00;99262.19;5103481;27;45281;-68
2023/10/27 04:36:08;;;;;;;;;1.67;1.00;;;;;12.14;100.00;99253.16;5103257;27;45322;-68
2023/10/27 04:38:34;;;;;;;;;3.33;2.00;;;;;12.25;100.00;99267.25;5119363;27;46904;-68
2023/10/27 04:40:59;;;;;;;;;3.33;2.00;;;;;12.23;100.00;99273.63;5102210;27;45217;-69
2023/10/27 04:43:25;;;;;;;;;2.33;2.00;;;;;12.19;100.00;99262.41;5102897;27;45474;-68
2023/10/27 04:45:50;;;;;;;;;4.00;2.00;;;;;12.27;100.00;99275.09;5102998;27;45391;-68
2023/10/27 04:48:16;;;;;;;;;3.67;2.00;;;;;12.30;100.00;99275.66;5119172;27;47909;-68
2023/10/27 04:50:41;;;;;;;;;3.00;3.00;;;;;12.31;100.00;99276.50;5103071;27;45296;-68
2023/10/27 04:53:07;;;;;;;;;4.33;2.00;;;;;12.31;100.00;99272.06;5103378;27;45327;-68
2023/10/27 04:55:33;;;;;;;;;5.00;3.67;;;;;12.13;100.00;99247.00;5103018;27;45303;-68
2023/10/27 04:57:58;;;;;;;;;2.67;2.33;;;;;12.23;100.00;99258.56;5103038;27;45387;-68
2023/10/27 05:00:24;;;;;;;;;5.67;3.33;;;;;12.28;100.00;99267.00;5102764;27;45368;-68
2023/10/27 05:02:53;;;;;;;;;4.00;2.00;;;;;12.41;100.00;99288.06;5119286;27;45311;-68
2023/10/27 05:05:20;;;;;;;;;3.00;2.00;;;;;12.41;100.00;99290.72;5101797;27;46121;-68
2023/10/27 05:07:45;;;;;;;;;2.67;2.00;;;;;12.42;100.00;99289.78;5102835;27;47547;-68
2023/10/27 05:10:10;;;;;;;;;2.00;1.00;;;;;12.41;100.00;99282.78;5102834;27;45270;-68
2023/10/27 05:12:36;;;;;;;;;4.00;3.00;;;;;12.41;100.00;99293.38;5101962;27;45256;-68
2023/10/27 05:15:03;;;;;;;;;4.67;3.00;;;;;12.36;100.00;99279.66;5080981;28;45703;-68
2023/10/27 05:17:29;;;;;;;;;1.33;1.33;;;;;12.36;100.00;99292.91;5081962;27;45393;-68
2023/10/27 05:19:54;;;;;;;;;3.33;2.00;;;;;12.31;100.00;99284.47;5082118;28;45285;-68
2023/10/27 05:22:21;;;;;;;;;4.67;3.33;;;;;12.32;100.00;99294.97;5082372;27;45398;-68
2023/10/27 05:24:47;;;;;;;;;2.33;2.33;;;;;12.34;100.00;99294.81;5082206;27;45369;-68
2023/10/27 05:27:12;;;;;;;;;2.67;1.33;;;;;12.32;100.00;99286.16;5082093;28;45325;-68
2023/10/27 05:29:37;;;;;;;;;2.00;2.00;;;;;12.36;100.00;99292.91;5081110;28;45399;-68
2023/10/27 05:32:05;;;;;;;;;4.00;1.67;;;;;12.24;100.00;99268.19;5082088;27;45254;-68
2023/10/27 05:34:30;;;;;;;;;2.67;2.00;;;;;12.36;100.00;99288.47;5082017;27;45506;-68
2023/10/27 05:36:56;;;;;;;;;6.33;2.67;;;;;12.24;100.00;99276.16;5081553;27;45320;-68
2023/10/27 05:39:26;;;;;;;;;4.33;3.33;;;;;12.34;100.00;99292.16;5082060;27;45243;-68
2023/10/27 05:41:51;;;;;;;;;1.67;1.67;;;;;12.34;100.00;99293.03;5082026;27;45257;-68
2023/10/27 05:44:17;;;;;;;;;4.67;2.00;;;;;12.17;100.00;99247.63;5081773;27;45242;-68
2023/10/27 05:46:42;;;;;;;;;4.00;3.00;;;;;12.38;100.00;99290.97;5081453;27;45821;-68
2023/10/27 05:49:08;;;;;;;;;3.00;3.00;;;;;12.37;100.00;99278.66;5081680;27;45226;-68
2023/10/27 05:51:37;;;;;;;;;1.00;1.00;;;;;12.42;100.00;99289.78;5081832;27;45289;-68
2023/10/27 05:54:02;;;;;;;;;2.33;2.33;;;;;12.37;100.00;99276.03;5081803;27;45418;-68
2023/10/27 05:56:28;;;;;;;;;3.00;2.00;;;;;12.24;100.00;99257.59;5080214;27;46237;-68
2023/10/27 05:58:54;;;;;;;;;1.00;1.00;;;;;12.36;100.00;99275.19;5081755;27;45274;-68
2023/10/27 06:01:20;;;;;;;;;4.00;2.67;;;;;12.35;100.00;99275.31;5080450;28;45338;-69
2023/10/27 06:03:46;;;;;;;;;2.00;2.00;;;;;12.33;100.00;99279.91;5081510;27;45312;-68
2023/10/27 06:06:12;;;;;;;;;3.00;1.00;;;;;12.29;100.00;99276.66;5081390;27;47399;-68
2023/10/27 06:08:42;;;;;;;;;1.00;1.00;;;;;12.28;100.00;99277.59;5081557;27;45209;-68
2023/10/27 06:11:08;;;;;;;;;0.33;0.00;;;;;12.10;100.00;99255.19;5081632;27;45352;-68
2023/10/27 06:13:33;;;;;;;;;3.33;2.00;;;;;12.23;100.00;99284.22;5090004;27;45369;-68
2023/10/27 06:15:59;;;;;;;;;2.00;2.00;;;;;12.21;100.00;99279.03;5101284;27;46167;-68
2023/10/27 06:18:24;;;;;;;;;1.67;1.00;;;;;12.12;100.00;99278.91;5101829;27;45311;-68
2023/10/27 06:20:49;;;;;;;;;1.33;1.00;;;;;12.14;100.00;99288.44;5101949;27;45218;-68
2023/10/27 06:23:15;;;;;;;;;1.67;1.67;;;;;12.01;100.00;99272.63;5101820;27;45320;-68
2023/10/27 06:25:41;;;;;;;;;2.67;1.00;;;;;12.12;100.00;99298.31;5101545;27;45474;-68
2023/10/27 06:28:06;;;;;;;;;1.00;1.00;;;;;12.08;100.00;99288.91;5100779;27;45300;-68
2023/10/27 06:30:32;;;;;;;;;2.33;1.00;;;;;12.02;100.00;99279.63;5101566;27;45419;-69
2023/10/27 06:32:57;;;;;;;;;1.00;1.00;;;;;12.07;100.00;99297.00;5101615;27;45240;-68
2023/10/27 06:35:23;;;;;;;;;1.00;1.00;;;;;12.10;100.00;99305.56;5101550;27;45530;-68
2023/10/27 06:37:48;;;;;;;;;1.33;1.33;;;;;12.05;100.00;99296.25;5101335;27;45322;-68
2023/10/27 06:40:14;;;;;;;;;2.33;1.00;;;;;12.02;100.00;99290.22;5101577;27;45381;-68
2023/10/27 06:42:39;;;;;;;;;4.33;1.67;;;;;12.09;100.00;99308.31;5101296;27;45410;-68
2023/10/27 06:45:05;;;;;;;;;4.33;1.00;;;;;12.05;100.00;99298.91;5101360;27;45426;-68
2023/10/27 06:47:31;;;;;;;;;2.67;2.00;;;;;12.06;100.00;99304.09;5101154;27;45533;-69
2023/10/27 06:49:56;;;;;;;;;5.00;1.67;;;;;12.05;100.00;99307.69;5100477;27;45195;-68
2023/10/27 06:52:22;;;;;;;;;4.00;1.33;;;;;12.07;100.00;99307.59;5101270;27;45297;-68
2023/10/27 06:54:47;;;;;;;;;3.00;1.00;;;;;12.03;100.00;99304.31;5101333;27;45286;-68
2023/10/27 06:57:13;;;;;;;;;1.33;1.33;;;;;11.96;100.00;99282.75;5101007;27;45304;-68
2023/10/27 06:59:40;;;;;;;;;3.00;3.00;;;;;12.04;100.00;99300.72;5101504;27;45253;-68
2023/10/27 07:02:06;;;;;;;;;3.00;2.00;;;;;12.00;100.00;99293.97;5099777;27;45395;-68
2023/10/27 07:04:31;;;;;;;;;1.00;1.00;;;;;12.09;100.00;99303.84;5100946;27;45925;-68
2023/10/27 07:06:57;;;;;;;;;1.33;1.33;;;;;12.09;100.00;99314.44;5100502;27;45242;-68
2023/10/27 07:09:23;;;;;;;;;0.67;0.67;;;;;12.13;100.00;99323.00;5101276;27;45772;-68
2023/10/27 07:11:49;;;;;;;;;4.00;1.00;;;;;12.12;100.00;99322.16;5100828;27;45427;-68
2023/10/27 07:14:15;;;;;;;;;1.33;1.33;;;;;11.95;100.00;99290.81;5084970;27;47877;-68
2023/10/27 07:16:43;;;;;;;;;1.00;1.00;;;;;12.18;100.00;99329.63;5079645;28;45377;-68
2023/10/27 07:19:11;;;;;;;;;2.33;2.00;;;;;12.18;100.00;99319.03;5080421;27;45347;-68
2023/10/27 07:21:38;;;;;;;;;5.67;4.00;;;;;12.04;100.00;99299.88;5080372;27;45183;-68
2023/10/27 07:24:03;;;;;;;;;1.00;1.00;;;;;12.21;100.00;99325.91;5079194;28;47513;-68
2023/10/27 07:26:29;;;;;;;;;2.67;1.00;;;;;12.19;100.00;99336.63;5080157;27;45201;-68
2023/10/27 07:28:54;;;;;;;;;1.00;1.00;;;;;12.12;100.00;99329.25;5079600;28;45150;-68
2023/10/27 07:31:20;;;;;;;;;3.00;1.00;;;;;12.26;100.00;99353.75;5080147;27;45235;-68
2023/10/27 07:33:45;;;;;;;;;2.00;2.00;;;;;12.29;100.00;99358.81;5080075;27;46776;-68
2023/10/27 07:36:10;;;;;;;;;3.00;2.00;;;;;12.31;100.00;99356.88;5079192;28;45366;-68
2023/10/27 07:38:36;;;;;;;;;2.00;2.00;;;;;12.12;100.00;99318.66;5079149;28;45321;-68
2023/10/27 07:41:03;;;;;;;;;2.00;2.00;;;;;12.36;100.00;99359.19;5080396;27;45269;-68
2023/10/27 07:43:29;;;;;;;;;1.00;1.00;;;;;12.20;100.00;99337.47;5079855;27;46943;-68
2023/10/27 07:45:55;;;;;;;;;2.67;2.00;;;;;12.41;100.00;99368.47;5079885;28;45406;-68
2023/10/27 07:48:21;;;;;;;;;1.33;1.00;;;;;12.46;100.00;99376.94;5079993;28;45291;-68
2023/10/27 07:50:47;;;;;;;;;2.33;1.00;;;;;12.52;100.00;99383.56;5079932;27;45340;-68
2023/10/27 07:53:13;;;;;;;;;4.00;2.00;;;;;12.57;100.00;99386.69;5078715;28;47412;-68
2023/10/27 07:55:38;;;;;;;;;3.33;1.33;;;;;12.64;100.00;99387.03;5078856;28;45203;-68
2023/10/27 07:58:04;;;;;;;;;1.00;1.00;;;;;12.66;100.00;99388.63;5079907;27;45311;-68
2023/10/27 08:00:31;;;;;;;;;2.67;1.67;;;;;12.69;100.00;99392.84;5078759;28;45384;-68
2023/10/27 08:02:58;;;;;;;;;4.67;2.00;;;;;12.72;100.00;99390.81;5079485;27;45260;-68
2023/10/27 08:05:23;;;;;;;;;1.00;1.00;;;;;12.74;100.00;99390.66;5079896;28;45336;-68
2023/10/27 08:07:49;;;;;;;;;3.00;1.00;;;;;12.78;100.00;99406.25;5079783;28;45235;-68
2023/10/27 08:10:16;;;;;;;;;3.33;2.00;;;;;12.84;100.00;99405.75;5079984;27;45313;-68
2023/10/27 08:12:41;;;;;;;;;1.00;1.00;;;;;12.89;100.00;99410.72;5080839;27;46953;-68
2023/10/27 08:15:07;;;;;;;;;1.00;1.00;;;;;12.89;100.00;99392.94;5099699;27;45465;-68
2023/10/27 08:17:33;;;;;;;;;3.00;1.00;;;;;12.94;100.00;99389.94;5100075;27;45272;-68
2023/10/27 08:19:58;;;;;;;;;3.67;1.00;;;;;13.00;100.00;99392.97;5101514;27;45373;-68
2023/10/27 08:22:24;;;;;;;;;4.67;2.00;;;;;13.06;100.00;99397.78;5103420;27;46176;-68
2023/10/27 08:24:49;;;;;;;;;3.33;1.67;;;;;13.09;100.00;99387.94;5103806;27;45265;-68
2023/10/27 08:27:15;;;;;;;;;4.67;1.67;;;;;13.06;100.00;99381.84;5103507;27;45316;-68
2023/10/27 08:29:40;;;;;;;;;1.67;1.33;;;;;13.14;100.00;99381.28;5103617;27;45291;-68
2023/10/27 08:32:06;;;;;;;;;5.00;2.00;;;;;13.17;100.00;99365.09;5102371;27;46267;-68
2023/10/27 08:34:31;;;;;;;;;7.33;1.00;;;;;13.27;100.00;99367.84;5103471;27;45291;-69
2023/10/27 08:36:57;;;;;;;;;1.00;1.00;;;;;13.31;100.00;99372.81;5103599;27;45304;-68
2023/10/27 08:39:24;;;;;;;;;1.00;1.00;;;;;13.34;100.00;99388.50;5102171;27;45445;-69
2023/10/27 08:41:50;;;;;;;;;3.00;1.00;;;;;13.29;100.00;99360.59;5103465;27;46115;-68
2023/10/27 08:44:17;;;;;;;;;2.67;2.00;;;;;13.44;100.00;99386.78;5102965;27;45295;-68
2023/10/27 08:46:44;;;;;;;;;1.00;1.00;;;;;13.64;100.00;99389.63;5103177;27;45323;-68
2023/10/27 08:49:09;;;;;;;;;2.00;1.00;;;;;13.77;100.00;99399.09;5102966;27;45311;-68
2023/10/27 08:51:35;;;;;;;;;2.00;2.00;;;;;13.73;100.00;99388.84;5101998;27;46770;-68
2023/10/27 08:54:01;;;;;;;;;2.67;1.00;;;;;13.74;100.00;99383.41;5103055;27;45343;-69
2023/10/27 08:56:27;;;;;;;;;1.00;1.00;;;;;13.90;100.00;99398.94;5103381;27;45333;-68
2023/10/27 08:58:55;;;;;;;;;2.00;1.00;;;;;13.95;100.00;99392.25;5102892;27;45449;-68
2023/10/27 09:01:21;;;;;;;;;1.00;1.00;;;;;13.93;100.00;99378.25;5102528;27;46153;-68
2023/10/27 09:04:12;;;;;;;;;0.00;0.00;;;;;13.97;100.00;99373.53;5102652;27;45305;-68
2023/10/27 09:06:39;;;;;;;;;2.00;0.33;;;;;14.05;100.00;99393.16;5103159;27;45245;-68
2023/10/27 09:09:06;;;;;;;;;2.00;2.00;;;;;13.99;100.00;99383.06;5103277;27;45532;-68
2023/10/27 09:11:38;;;;;;;;;1.33;0.00;;;;;14.30;100.00;99431.00;5102721;27;45979;-68
2023/10/27 09:14:18;;;;;;;;;3.33;1.00;;;;;14.36;100.00;99438.50;5088515;27;45341;-68
2023/10/27 09:16:44;;;;;;;;;2.00;1.00;;;;;14.42;100.00;99432.66;5081988;27;45222;-68
2023/10/27 09:19:19;;;;;;;;;0.00;0.00;;;;;14.40;100.00;99435.44;5082177;27;45271;-68
2023/10/27 09:21:47;;;;;;;;;3.00;0.67;;;;;14.36;100.00;99428.72;5082168;27;45269;-69
2023/10/27 09:24:24;;;;;;;;;1.33;1.33;;;;;14.65;100.00;99446.66;5082185;27;45284;-68
2023/10/27 09:26:49;;;;;;;;;6.00;2.00;;;;;14.74;100.00;99441.41;5082453;27;45389;-68
2023/10/27 09:29:16;;;;;;;;;2.00;1.00;;;;;14.79;100.00;99430.38;5081985;27;45307;-68
2023/10/27 09:31:43;;;;;;;;;2.00;0.00;;;;;14.73;100.00;99399.78;5081707;27;46151;-68
2023/10/27 09:34:23;;;;;;;;;1.00;0.00;;;;;14.93;100.00;99432.66;5081794;27;45288;-69
2023/10/27 09:36:58;;;;;;;;;5.00;1.33;;;;;14.98;100.00;99436.63;5082065;27;45247;-68
2023/10/27 09:39:25;;;;;;;;;1.00;1.00;;;;;15.00;100.00;99439.13;5081824;27;45487;-69
2023/10/27 09:42:08;;;;;;;;;2.33;1.33;;;;;14.95;100.00;99436.03;5081022;27;45883;-69
2023/10/27 09:44:48;;;;;;;;;3.33;2.00;;;;;14.98;100.00;99436.63;5081707;27;45390;-68
2023/10/27 09:47:22;;;;;;;;;1.33;1.33;;;;;14.90;100.00;99415.13;5082064;27;45242;-68
2023/10/27 09:49:54;;;;;;;;;3.00;3.00;;;;;14.88;100.00;99408.25;5081675;27;45287;-69
2023/10/27 09:52:21;;;;;;;;;4.00;1.33;;;;;15.02;100.00;99435.34;5081758;27;45460;-68
2023/10/27 09:54:48;;;;;;;;;1.00;1.00;;;;;15.09;100.00;99433.84;5080454;28;45297;-68
2023/10/27 09:57:14;;;;;;;;;1.33;1.00;;;;;15.12;100.00;99436.25;5081996;27;45159;-69
2023/10/27 09:59:41;;;;;;;;;4.67;2.00;;;;;15.14;100.00;99428.13;5081241;27;45455;-69
2023/10/27 10:02:08;;;;;;;;;1.00;1.00;;;;;15.22;100.00;99435.44;5080392;28;48077;-69
2023/10/27 10:05:00;;;;;;;;;1.00;1.00;;;;;15.34;100.00;99429.03;5081313;27;45393;-68
2023/10/27 10:07:29;;;;;;;;;1.00;1.00;;;;;15.47;100.00;99440.28;5078613;28;45242;-69
2023/10/27 10:09:55;;;;;;;;;1.67;1.00;;;;;15.51;100.00;99441.75;5081374;27;45263;-69
2023/10/27 10:12:20;;;;;;;;;1.67;1.00;;;;;15.55;100.00;99440.47;5081209;27;46455;-68
2023/10/27 10:14:48;;;;;;;;;2.33;1.00;;;;;15.69;100.00;99448.09;5099846;27;45355;-68
2023/10/27 10:17:40;;;;;;;;;1.00;1.00;;;;;15.79;100.00;99446.28;5101968;27;45257;-69
2023/10/27 10:20:07;;;;;;;;;1.00;1.00;;;;;15.75;100.00;99446.69;5101634;27;45368;-69
2023/10/27 10:22:38;;;;;;;;;1.00;1.00;;;;;15.68;100.00;99448.22;5101770;27;46068;-68
2023/10/27 10:25:19;;;;;;;;;1.00;1.00;;;;;15.69;100.00;99453.41;5101538;27;45281;-68
2023/10/27 10:28:09;;;;;;;;;2.67;1.00;;;;;15.78;100.00;99446.41;5100658;27;45373;-68
2023/10/27 10:30:43;;;;;;;;;0.33;0.33;;;;;15.81;100.00;99430.13;5101247;27;45227;-68
2023/10/27 10:33:24;;;;;;;;;5.00;1.00;;;;;15.83;100.00;99420.19;5101368;27;45686;-69
2023/10/27 10:35:51;;;;;;;;;3.00;2.00;;;;;15.91;100.00;99407.84;5101975;27;45337;-69
2023/10/27 10:38:22;;;;;;;;;2.00;0.67;;;;;16.15;100.00;99429.59;5101588;27;45257;-68
2023/10/27 10:40:55;;;;;;;;;1.00;1.00;;;;;16.31;100.00;99428.19;5101287;27;45324;-68
2023/10/27 10:43:26;;;;;;;;;1.33;1.00;;;;;16.47;100.00;99425.75;5100698;27;46338;-68
2023/10/27 10:45:57;;;;;;;;;2.67;1.00;;;;;16.53;98.71;99411.84;5100930;27;45317;-68
2023/10/27 10:48:28;;;;;;;;;0.00;0.00;;;;;16.65;99.15;99435.59;5101394;27;45301;-69
2023/10/27 10:50:58;;;;;;;;;3.67;1.00;;;;;16.58;96.77;99431.00;5101123;27;45344;-68
2023/10/27 10:53:24;;;;;;;;;2.67;2.67;;;;;16.57;100.00;99424.81;5101267;27;45979;-68
2023/10/27 10:55:55;;;;;;;;;2.67;1.00;;;;;16.54;100.00;99424.22;5100935;27;45224;-68
2023/10/27 10:58:21;;;;;;;;;2.67;1.00;;;;;16.46;100.00;99424.06;5101345;27;45300;-68
2023/10/27 11:00:48;;;;;;;;;2.00;0.00;;;;;16.22;100.00;99389.00;5099711;27;45357;-68
2023/10/27 11:03:13;;;;;;;;;1.00;1.00;;;;;16.40;100.00;99416.63;5099882;27;46884;-68
2023/10/27 11:05:39;;;;;;;;;4.00;2.00;;;;;16.24;100.00;99393.22;5100909;27;45212;-68
2023/10/27 11:08:05;;;;;;;;;1.67;1.67;;;;;16.29;100.00;99419.47;5101329;27;45385;-68
2023/10/27 11:10:32;;;;;;;;;1.33;1.00;;;;;16.24;100.00;99411.91;5101065;27;45277;-68
2023/10/27 11:13:06;;;;;;;;;2.00;0.67;;;;;16.10;100.00;99406.97;5097194;27;45530;-68
2023/10/27 11:15:48;;;;;;;;;0.33;0.00;;;;;16.13;100.00;99426.22;5080034;27;45233;-69
2023/10/27 11:18:15;;;;;;;;;4.67;1.33;;;;;16.11;100.00;99420.19;5079401;28;45313;-68
2023/10/27 11:20:43;;;;;;;;;3.00;2.00;;;;;16.16;100.00;99411.78;5080426;27;45258;-68
2023/10/27 11:23:13;;;;;;;;;3.67;1.00;;;;;15.95;100.00;99397.72;5080359;27;45373;-68